Time;durP1;ratioP1;P1;durP2;ratioP2;P2;SDS_P1;SDS_P2;PMS_P1;PMS_P2;Temp;Humidity;BMP_temperature;BMP_pressure;BME280_temperature;BME280_humidity;BME280_pressure;Samples;Min_cycle;Max_cycle;Signal;HPM_P1;HPM_P2
2023/01/19 00:01:59;;;;;;;6.57;5.90;;;;;;;;;;5126369;27;20459;-67
2023/01/19 00:04:25;;;;;;;6.30;5.60;;;;;;;;;;5123297;27;20903;-69
2023/01/19 00:06:51;;;;;;;6.30;5.77;;;;;;;;;;5128713;27;20468;-66
2023/01/19 00:09:18;;;;;;;11.43;5.27;;;;;;;;;;5110309;28;20540;-68
2023/01/19 00:11:44;;;;;;;6.40;5.60;;;;;;;;;;5130080;28;20427;-67
2023/01/19 00:14:10;;;;;;;7.23;6.40;;;;;;;;;;5129622;28;21589;-66
2023/01/19 00:16:36;;;;;;;7.90;5.33;;;;;;;;;;5129942;28;20435;-66
2023/01/19 00:19:02;;;;;;;5.53;5.13;;;;;;;;;;5129837;28;20445;-66
2023/01/19 00:21:28;;;;;;;6.57;5.77;;;;;;;;;;5130611;28;20454;-66
2023/01/19 00:23:54;;;;;;;6.87;6.30;;;;;;;;;;5130468;28;20969;-66
2023/01/19 00:26:21;;;;;;;12.17;6.53;;;;;;;;;;5129646;28;21937;-66
2023/01/19 00:28:48;;;;;;;6.07;5.57;;;;;;;;;;5127366;28;20462;-68
2023/01/19 00:31:14;;;;;;;6.90;6.33;;;;;;;;;;5130260;28;20427;-67
2023/01/19 00:33:40;;;;;;;6.73;6.03;;;;;;;;;;5130081;28;20799;-66
2023/01/19 00:36:06;;;;;;;7.77;6.47;;;;;;;;;;5111643;28;20816;-68
2023/01/19 00:38:32;;;;;;;6.47;6.03;;;;;;;;;;5129267;28;20434;-66
2023/01/19 00:40:58;;;;;;;9.40;6.20;;;;;;;;;;5129150;28;20842;-66
2023/01/19 00:43:24;;;;;;;6.10;5.70;;;;;;;;;;5128627;28;20513;-66
2023/01/19 00:45:50;;;;;;;5.60;5.17;;;;;;;;;;5129733;28;20430;-68
2023/01/19 00:48:16;;;;;;;6.30;5.73;;;;;;;;;;5129471;28;20450;-66
2023/01/19 00:50:42;;;;;;;9.70;6.60;;;;;;;;;;5129543;28;20454;-66
2023/01/19 00:53:08;;;;;;;7.57;5.60;;;;;;;;;;5128779;28;20435;-67
2023/01/19 00:55:34;;;;;;;6.43;5.83;;;;;;;;;;5130084;28;20438;-67
2023/01/19 00:58:01;;;;;;;5.73;4.90;;;;;;;;;;5128904;28;20426;-67
2023/01/19 01:00:27;;;;;;;6.60;6.20;;;;;;;;;;5129367;28;20940;-67
2023/01/19 01:02:54;;;;;;;5.80;5.37;;;;;;;;;;5129815;28;20426;-67
2023/01/19 01:05:20;;;;;;;5.30;4.90;;;;;;;;;;5129056;28;20431;-68
2023/01/19 01:07:48;;;;;;;6.60;6.10;;;;;;;;;;5130332;28;20453;-66
2023/01/19 01:10:17;;;;;;;7.33;6.73;;;;;;;;;;5129228;28;20473;-67
2023/01/19 01:12:43;;;;;;;6.17;5.50;;;;;;;;;;5129846;28;20422;-69
2023/01/19 01:15:10;;;;;;;5.90;5.50;;;;;;;;;;5129255;27;21029;-67
2023/01/19 01:17:37;;;;;;;9.53;5.77;;;;;;;;;;5133477;27;20626;-66
2023/01/19 01:20:03;;;;;;;5.33;4.87;;;;;;;;;;5113607;27;20915;-67
2023/01/19 01:22:29;;;;;;;5.67;5.17;;;;;;;;;;5114946;27;20433;-67
2023/01/19 01:24:55;;;;;;;8.10;6.17;;;;;;;;;;5131930;27;20418;-66
2023/01/19 01:27:21;;;;;;;6.30;5.90;;;;;;;;;;5132791;27;20438;-67
2023/01/19 01:29:47;;;;;;;6.27;5.73;;;;;;;;;;5132618;27;20485;-66
2023/01/19 01:32:14;;;;;;;13.43;5.60;;;;;;;;;;5132083;27;20510;-66
2023/01/19 01:34:40;;;;;;;7.27;6.57;;;;;;;;;;5131870;27;20450;-68
2023/01/19 01:37:07;;;;;;;10.60;5.23;;;;;;;;;;5131400;27;20431;-68
2023/01/19 01:39:33;;;;;;;5.73;5.13;;;;;;;;;;5131705;27;20431;-69
2023/01/19 01:41:59;;;;;;;7.20;4.93;;;;;;;;;;5132359;27;20451;-68
2023/01/19 01:44:54;;;;;;;5.13;4.83;;;;;;;;;;5132152;27;20930;-70
2023/01/19 01:47:31;;;;;;;8.90;4.97;;;;;;;;;;5108564;27;20965;-69
2023/01/19 01:50:15;;;;;;;5.63;5.33;;;;;;;;;;5131415;27;20567;-67
2023/01/19 01:52:46;;;;;;;6.90;5.60;;;;;;;;;;5133039;27;20458;-67
2023/01/19 01:55:13;;;;;;;5.80;5.30;;;;;;;;;;5132140;27;20501;-69
2023/01/19 01:57:41;;;;;;;5.70;5.30;;;;;;;;;;5132898;27;20580;-70
2023/01/19 02:00:07;;;;;;;4.77;4.40;;;;;;;;;;5130472;27;20437;-70
2023/01/19 02:02:50;;;;;;;5.23;4.90;;;;;;;;;;5131580;27;20427;-67
2023/01/19 02:05:19;;;;;;;6.20;5.60;;;;;;;;;;5132987;27;20413;-67
2023/01/19 02:13:19;;;;;;;7.17;4.70;;;;;;;;;;5132928;27;20422;-66
2023/01/19 02:15:45;;;;;;;6.47;4.63;;;;;;;;;;5130223;27;20451;-68
2023/01/19 02:18:12;;;;;;;6.10;4.57;;;;;;;;;;5130274;27;20419;-67
2023/01/19 02:20:40;;;;;;;4.73;4.53;;;;;;;;;;5132120;27;21158;-70
2023/01/19 02:23:08;;;;;;;4.80;4.50;;;;;;;;;;5131821;27;20427;-69
2023/01/19 02:25:34;;;;;;;14.20;4.87;;;;;;;;;;5131272;27;20442;-70
2023/01/19 02:28:00;;;;;;;4.50;4.13;;;;;;;;;;5130483;27;20419;-68
2023/01/19 02:30:27;;;;;;;4.30;4.13;;;;;;;;;;5131430;27;20472;-67
2023/01/19 02:32:53;;;;;;;3.83;3.63;;;;;;;;;;5132183;27;20555;-67
2023/01/19 02:35:19;;;;;;;4.13;3.83;;;;;;;;;;5131424;27;20518;-66
2023/01/19 02:37:46;;;;;;;3.60;3.30;;;;;;;;;;5133058;27;20481;-66
2023/01/19 02:40:14;;;;;;;4.93;4.50;;;;;;;;;;5130953;27;20480;-67
2023/01/19 02:42:44;;;;;;;3.80;3.53;;;;;;;;;;5131445;27;20851;-67
2023/01/19 02:45:13;;;;;;;4.23;3.07;;;;;;;;;;5130949;27;20525;-69
2023/01/19 02:47:40;;;;;;;3.03;2.83;;;;;;;;;;5131654;27;20447;-68
2023/01/19 02:50:26;;;;;;;5.30;4.90;;;;;;;;;;5130703;27;20482;-67
2023/01/19 02:52:54;;;;;;;4.17;3.70;;;;;;;;;;5112153;27;20419;-67
2023/01/19 02:55:24;;;;;;;2.77;2.67;;;;;;;;;;5131054;27;20920;-67
2023/01/19 02:57:58;;;;;;;3.17;2.97;;;;;;;;;;5129784;27;20993;-68
2023/01/19 03:00:31;;;;;;;3.47;3.23;;;;;;;;;;5129346;27;20474;-67
2023/01/19 03:03:16;;;;;;;3.40;3.30;;;;;;;;;;5130748;27;20930;-66
2023/01/19 03:05:48;;;;;;;3.83;3.53;;;;;;;;;;5131496;27;20452;-67
2023/01/19 03:08:30;;;;;;;3.80;3.50;;;;;;;;;;5130571;27;20890;-66
2023/01/19 03:11:02;;;;;;;3.33;3.23;;;;;;;;;;5130497;27;20475;-66
2023/01/19 03:13:47;;;;;;;3.70;3.40;;;;;;;;;;5131441;27;20490;-68
2023/01/19 03:16:20;;;;;;;3.80;3.50;;;;;;;;;;5131071;27;20487;-67
2023/01/19 03:18:49;;;;;;;2.57;2.50;;;;;;;;;;5129611;27;20423;-66
2023/01/19 03:21:16;;;;;;;15.67;8.30;;;;;;;;;;5130675;27;20479;-66
2023/01/19 03:23:43;;;;;;;14.83;6.00;;;;;;;;;;5130928;27;20414;-67
2023/01/19 03:26:11;;;;;;;66.60;26.80;;;;;;;;;;5131095;27;20442;-68
2023/01/19 03:28:39;;;;;;;47.00;17.80;;;;;;;;;;5130064;27;20517;-67
2023/01/19 03:31:10;;;;;;;40.03;16.30;;;;;;;;;;5131019;27;20423;-66
2023/01/19 03:33:38;;;;;;;20.27;10.50;;;;;;;;;;5131416;27;20431;-66
2023/01/19 03:36:08;;;;;;;9.30;7.10;;;;;;;;;;5130229;27;20452;-67
2023/01/19 03:38:36;;;;;;;5.13;4.33;;;;;;;;;;5129041;27;20934;-67
2023/01/19 03:41:04;;;;;;;3.80;3.50;;;;;;;;;;5129742;27;20430;-66
2023/01/19 03:43:31;;;;;;;2.83;2.73;;;;;;;;;;5129724;27;20431;-66
2023/01/19 03:45:57;;;;;;;3.40;3.20;;;;;;;;;;5128722;27;20533;-67
2023/01/19 03:48:23;;;;;;;3.43;3.13;;;;;;;;;;5129683;27;20470;-67
2023/01/19 03:50:49;;;;;;;3.77;3.57;;;;;;;;;;5129864;27;20434;-66
2023/01/19 03:53:16;;;;;;;4.80;3.53;;;;;;;;;;5112080;27;20427;-66
2023/01/19 03:55:44;;;;;;;4.20;3.10;;;;;;;;;;5130312;27;20434;-67
2023/01/19 03:58:10;;;;;;;4.20;4.00;;;;;;;;;;5129405;27;20423;-67
2023/01/19 04:00:36;;;;;;;3.20;3.00;;;;;;;;;;5129815;27;20917;-67
2023/01/19 04:03:03;;;;;;;2.87;2.73;;;;;;;;;;5130616;27;20551;-67
2023/01/19 04:05:29;;;;;;;5.03;3.10;;;;;;;;;;5129008;27;20427;-67
2023/01/19 04:07:55;;;;;;;12.03;3.13;;;;;;;;;;5130166;27;20411;-66
2023/01/19 04:10:21;;;;;;;5.20;3.50;;;;;;;;;;5127846;27;20496;-66
2023/01/19 04:12:47;;;;;;;57.37;27.73;;;;;;;;;;5112408;28;20431;-66
2023/01/19 04:15:13;;;;;;;8.63;6.40;;;;;;;;;;5111468;28;20514;-68
2023/01/19 04:17:40;;;;;;;4.73;4.33;;;;;;;;;;5130537;28;20535;-67
2023/01/19 04:20:06;;;;;;;5.70;5.20;;;;;;;;;;5129673;28;20525;-69
2023/01/19 04:22:32;;;;;;;3.20;3.00;;;;;;;;;;5111475;28;20837;-66
2023/01/19 04:24:58;;;;;;;3.73;3.53;;;;;;;;;;5129875;28;20886;-68
2023/01/19 04:27:24;;;;;;;4.20;3.77;;;;;;;;;;5130048;27;20449;-68
2023/01/19 04:29:50;;;;;;;3.57;3.40;;;;;;;;;;5129114;28;20586;-67
2023/01/19 04:32:17;;;;;;;3.20;2.93;;;;;;;;;;5129471;28;20464;-67
2023/01/19 04:34:42;;;;;;;3.00;2.90;;;;;;;;;;5130034;28;20487;-68
2023/01/19 04:37:09;;;;;;;3.03;2.53;;;;;;;;;;5130240;28;20430;-66
2023/01/19 04:39:35;;;;;;;3.00;2.90;;;;;;;;;;5128173;28;20422;-67
2023/01/19 04:42:05;;;;;;;3.30;3.13;;;;;;;;;;5130182;28;20475;-68
2023/01/19 04:44:31;;;;;;;3.13;2.87;;;;;;;;;;5129061;28;20435;-67
2023/01/19 04:46:57;;;;;;;3.13;2.73;;;;;;;;;;5130375;28;20555;-67
2023/01/19 04:49:23;;;;;;;13.73;3.30;;;;;;;;;;5129435;27;20505;-67
2023/01/19 04:51:49;;;;;;;2.90;2.80;;;;;;;;;;5130398;27;20909;-66
2023/01/19 04:54:15;;;;;;;3.20;3.07;;;;;;;;;;5115458;27;20441;-66
2023/01/19 04:56:41;;;;;;;3.30;3.20;;;;;;;;;;5134091;27;20475;-66
2023/01/19 04:59:07;;;;;;;7.03;3.60;;;;;;;;;;5114299;27;20968;-67
2023/01/19 05:01:33;;;;;;;3.90;2.80;;;;;;;;;;5133416;27;20832;-66
2023/01/19 05:03:59;;;;;;;3.40;3.23;;;;;;;;;;5134237;27;20434;-67
2023/01/19 05:06:25;;;;;;;3.33;3.00;;;;;;;;;;5133908;27;20435;-67
2023/01/19 05:08:51;;;;;;;3.20;3.10;;;;;;;;;;5132188;27;21012;-66
2023/01/19 05:11:17;;;;;;;2.90;2.70;;;;;;;;;;5134058;27;20450;-67
2023/01/19 05:13:43;;;;;;;3.50;3.40;;;;;;;;;;5133443;27;20422;-67
2023/01/19 05:16:09;;;;;;;2.70;2.60;;;;;;;;;;5133223;27;20521;-66
2023/01/19 05:18:35;;;;;;;3.07;2.47;;;;;;;;;;5133603;27;20431;-66
2023/01/19 05:21:05;;;;;;;3.33;3.10;;;;;;;;;;5133328;27;20437;-66
2023/01/19 05:23:31;;;;;;;6.73;3.37;;;;;;;;;;5114138;27;20427;-67
2023/01/19 05:25:59;;;;;;;4.27;3.60;;;;;;;;;;5132569;27;20429;-67
2023/01/19 05:28:25;;;;;;;9.43;3.23;;;;;;;;;;5132403;27;20944;-69
2023/01/19 05:30:51;;;;;;;4.50;3.60;;;;;;;;;;5133230;27;20525;-69
2023/01/19 05:33:17;;;;;;;3.13;3.03;;;;;;;;;;5114171;27;20522;-66
2023/01/19 05:35:43;;;;;;;6.53;3.77;;;;;;;;;;5132062;27;20472;-67
2023/01/19 05:38:09;;;;;;;3.43;3.07;;;;;;;;;;5133178;27;20895;-67
2023/01/19 05:40:35;;;;;;;5.50;3.40;;;;;;;;;;5132698;27;20426;-67
2023/01/19 05:43:03;;;;;;;3.07;2.80;;;;;;;;;;5132845;27;20788;-67
2023/01/19 05:45:29;;;;;;;8.13;3.10;;;;;;;;;;5132159;27;20427;-67
2023/01/19 05:47:55;;;;;;;9.77;3.33;;;;;;;;;;5133165;27;20483;-67
2023/01/19 05:50:21;;;;;;;3.47;3.37;;;;;;;;;;5132504;27;20506;-66
2023/01/19 05:52:47;;;;;;;2.57;2.37;;;;;;;;;;5114351;27;20849;-68
2023/01/19 05:55:13;;;;;;;5.00;3.53;;;;;;;;;;5133190;27;20455;-67
2023/01/19 05:57:39;;;;;;;2.67;2.57;;;;;;;;;;5132739;27;20441;-68
2023/01/19 06:00:06;;;;;;;3.73;2.67;;;;;;;;;;5130922;27;20433;-67
2023/01/19 06:02:32;;;;;;;2.53;2.53;;;;;;;;;;5132439;27;20423;-68
2023/01/19 06:04:58;;;;;;;4.43;4.23;;;;;;;;;;5131713;27;20438;-66
2023/01/19 06:07:24;;;;;;;3.17;2.97;;;;;;;;;;5133116;27;20808;-67
2023/01/19 06:09:50;;;;;;;2.77;2.53;;;;;;;;;;5129269;27;20490;-66
2023/01/19 06:12:16;;;;;;;3.10;2.90;;;;;;;;;;5132475;27;20852;-66
2023/01/19 06:14:42;;;;;;;10.23;2.57;;;;;;;;;;5114374;27;20454;-67
2023/01/19 06:17:08;;;;;;;2.37;2.20;;;;;;;;;;5132363;27;20914;-67
2023/01/19 06:19:34;;;;;;;2.30;2.30;;;;;;;;;;5131127;27;20480;-67
2023/01/19 06:22:00;;;;;;;2.40;2.30;;;;;;;;;;5131946;27;20450;-68
2023/01/19 06:24:26;;;;;;;5.97;3.00;;;;;;;;;;5129513;27;20430;-67
2023/01/19 06:26:53;;;;;;;3.23;3.13;;;;;;;;;;5132405;27;20427;-66
2023/01/19 06:29:20;;;;;;;3.47;2.70;;;;;;;;;;5131130;27;20983;-68
2023/01/19 06:31:46;;;;;;;3.93;3.30;;;;;;;;;;5131769;27;20462;-67
2023/01/19 06:34:12;;;;;;;2.70;2.60;;;;;;;;;;5113353;27;20482;-67
2023/01/19 06:36:38;;;;;;;3.17;3.00;;;;;;;;;;5131337;27;20431;-67
2023/01/19 06:39:05;;;;;;;2.97;2.67;;;;;;;;;;5127816;27;20495;-67
2023/01/19 06:41:34;;;;;;;6.33;3.10;;;;;;;;;;5131281;27;20426;-66
2023/01/19 06:44:00;;;;;;;3.90;3.17;;;;;;;;;;5126055;27;20466;-66
2023/01/19 06:46:26;;;;;;;4.30;4.00;;;;;;;;;;5130212;27;20462;-66
2023/01/19 06:48:53;;;;;;;6.53;3.43;;;;;;;;;;5130880;27;20501;-66
2023/01/19 06:51:19;;;;;;;5.20;3.97;;;;;;;;;;5131097;27;20472;-66
2023/01/19 06:53:45;;;;;;;7.40;3.97;;;;;;;;;;5131849;27;20502;-65
2023/01/19 06:56:10;;;;;;;2.73;2.73;;;;;;;;;;5095915;27;20457;-66
2023/01/19 06:58:36;;;;;;;4.03;3.93;;;;;;;;;;5127937;27;21065;-66
2023/01/19 07:01:03;;;;;;;15.10;6.40;;;;;;;;;;5129803;27;20898;-65
2023/01/19 07:03:30;;;;;;;5.90;5.13;;;;;;;;;;5131420;27;20517;-66
2023/01/19 07:05:56;;;;;;;5.27;4.97;;;;;;;;;;5131420;27;20446;-66
2023/01/19 07:08:22;;;;;;;4.80;4.40;;;;;;;;;;5130642;27;20470;-65
2023/01/19 07:10:49;;;;;;;5.27;4.47;;;;;;;;;;5129483;27;20441;-66
2023/01/19 07:13:15;;;;;;;5.27;3.67;;;;;;;;;;5130575;27;20435;-66
2023/01/19 07:15:41;;;;;;;4.83;4.30;;;;;;;;;;5130901;27;20438;-66
2023/01/19 07:18:08;;;;;;;4.50;4.20;;;;;;;;;;5129756;27;20423;-66
2023/01/19 07:20:34;;;;;;;11.10;4.40;;;;;;;;;;5130542;27;20431;-66
2023/01/19 07:23:03;;;;;;;8.20;5.80;;;;;;;;;;5111418;27;20426;-66
2023/01/19 07:25:29;;;;;;;11.40;6.23;;;;;;;;;;5130453;27;20918;-66
2023/01/19 07:28:08;;;;;;;10.20;7.80;;;;;;;;;;5130364;27;21177;-66
2023/01/19 07:30:34;;;;;;;7.27;5.73;;;;;;;;;;5129098;27;21132;-66
2023/01/19 07:33:01;;;;;;;5.80;5.20;;;;;;;;;;5130489;27;20426;-66
2023/01/19 07:35:28;;;;;;;9.20;5.37;;;;;;;;;;5129301;27;20438;-66
2023/01/19 07:37:54;;;;;;;10.63;5.70;;;;;;;;;;5128995;27;20513;-66
2023/01/19 07:40:20;;;;;;;5.60;5.07;;;;;;;;;;5127888;27;20435;-66
2023/01/19 07:42:47;;;;;;;5.00;4.60;;;;;;;;;;5129617;27;20483;-66
2023/01/19 07:45:14;;;;;;;6.80;6.07;;;;;;;;;;5130699;27;20465;-66
2023/01/19 07:47:42;;;;;;;18.80;5.70;;;;;;;;;;5110725;27;20427;-66
2023/01/19 07:50:08;;;;;;;8.23;5.00;;;;;;;;;;5127870;27;20482;-66
2023/01/19 07:52:34;;;;;;;8.30;5.80;;;;;;;;;;5110740;27;20423;-66
2023/01/19 07:55:00;;;;;;;6.07;5.47;;;;;;;;;;5131245;27;20472;-66
2023/01/19 07:57:26;;;;;;;18.50;8.80;;;;;;;;;;5129977;27;20910;-66
2023/01/19 07:59:52;;;;;;;14.80;7.80;;;;;;;;;;5128756;27;20427;-67
2023/01/19 08:02:18;;;;;;;25.67;15.80;;;;;;;;;;5128880;27;20419;-66
2023/01/19 08:04:46;;;;;;;16.63;11.80;;;;;;;;;;5111781;28;20418;-67
2023/01/19 08:07:12;;;;;;;10.30;8.50;;;;;;;;;;5128650;27;20463;-66
2023/01/19 08:09:38;;;;;;;8.83;7.00;;;;;;;;;;5111687;27;21142;-66
2023/01/19 08:12:04;;;;;;;9.30;6.37;;;;;;;;;;5130012;27;20453;-67
2023/01/19 08:14:31;;;;;;;4.97;4.53;;;;;;;;;;5130334;28;20423;-67
2023/01/19 08:17:00;;;;;;;37.87;5.23;;;;;;;;;;5126464;28;20438;-67
2023/01/19 08:19:29;;;;;;;10.40;5.40;;;;;;;;;;5129094;28;20458;-66
2023/01/19 08:21:57;;;;;;;5.90;4.60;;;;;;;;;;5127086;28;20423;-69
2023/01/19 08:24:27;;;;;;;6.00;5.03;;;;;;;;;;5129104;27;20805;-68
2023/01/19 08:26:58;;;;;;;10.13;4.70;;;;;;;;;;5134678;27;20918;-68
2023/01/19 08:29:24;;;;;;;4.70;4.30;;;;;;;;;;5133012;27;20522;-69
2023/01/19 08:31:51;;;;;;;4.87;4.50;;;;;;;;;;5133926;27;20433;-67
2023/01/19 08:34:17;;;;;;;13.77;4.77;;;;;;;;;;5134492;27;20801;-69
2023/01/19 08:36:43;;;;;;;4.20;3.97;;;;;;;;;;5133268;27;20934;-68
2023/01/19 08:39:11;;;;;;;5.20;4.40;;;;;;;;;;5132862;27;20448;-67
2023/01/19 08:41:37;;;;;;;8.90;4.73;;;;;;;;;;5131592;27;20430;-67
2023/01/19 08:44:03;;;;;;;6.20;4.67;;;;;;;;;;5133109;27;20627;-68
2023/01/19 08:46:29;;;;;;;5.67;5.03;;;;;;;;;;5133701;27;20419;-66
2023/01/19 08:48:55;;;;;;;5.90;5.13;;;;;;;;;;5132833;27;20819;-69
2023/01/19 08:51:21;;;;;;;4.63;4.30;;;;;;;;;;5132300;27;20484;-68
2023/01/19 08:53:48;;;;;;;11.67;4.23;;;;;;;;;;5114720;27;20454;-69
2023/01/19 08:56:14;;;;;;;3.40;3.20;;;;;;;;;;5113238;27;20993;-67
2023/01/19 08:58:43;;;;;;;8.70;3.93;;;;;;;;;;5131275;27;20768;-67
2023/01/19 09:01:12;;;;;;;4.50;2.70;;;;;;;;;;5132020;27;20446;-65
2023/01/19 09:03:38;;;;;;;5.50;2.70;;;;;;;;;;5129737;27;20998;-69
2023/01/19 09:06:05;;;;;;;3.33;3.23;;;;;;;;;;5133075;27;20510;-68
2023/01/19 09:08:31;;;;;;;5.80;4.83;;;;;;;;;;5109394;28;21080;-66
2023/01/19 09:10:57;;;;;;;5.00;4.60;;;;;;;;;;5111808;28;20427;-68
2023/01/19 09:13:24;;;;;;;6.20;5.60;;;;;;;;;;5109832;28;20455;-69
2023/01/19 09:15:50;;;;;;;13.83;5.83;;;;;;;;;;5109418;28;20793;-67
2023/01/19 09:18:18;;;;;;;4.93;4.27;;;;;;;;;;5110063;28;20432;-67
2023/01/19 09:20:45;;;;;;;3.67;3.37;;;;;;;;;;5111725;28;20488;-67
2023/01/19 09:23:12;;;;;;;4.70;3.20;;;;;;;;;;5109804;28;20488;-70
2023/01/19 09:25:39;;;;;;;2.93;2.83;;;;;;;;;;5111434;28;20431;-70
2023/01/19 09:28:06;;;;;;;5.33;3.07;;;;;;;;;;5110815;28;21018;-68
2023/01/19 09:30:32;;;;;;;5.30;2.17;;;;;;;;;;5110492;28;20478;-67
2023/01/19 09:33:03;;;;;;;2.40;2.40;;;;;;;;;;5111638;28;20461;-69
2023/01/19 09:35:30;;;;;;;3.50;3.30;;;;;;;;;;5111578;28;20428;-68
2023/01/19 09:37:56;;;;;;;4.70;2.43;;;;;;;;;;5110998;28;20501;-67
2023/01/19 09:40:22;;;;;;;3.40;2.37;;;;;;;;;;5111750;28;20431;-66
2023/01/19 09:42:52;;;;;;;16.43;3.30;;;;;;;;;;5112426;28;20435;-68
2023/01/19 09:45:22;;;;;;;21.07;3.53;;;;;;;;;;5110491;28;20416;-67
2023/01/19 09:47:48;;;;;;;10.97;3.50;;;;;;;;;;5112161;28;20454;-67
2023/01/19 09:50:24;;;;;;;5.03;2.70;;;;;;;;;;5111913;28;20574;-67
2023/01/19 09:52:55;;;;;;;2.63;2.53;;;;;;;;;;5109674;28;20431;-68
2023/01/19 09:55:24;;;;;;;2.80;2.70;;;;;;;;;;5111047;28;20435;-67
2023/01/19 09:57:50;;;;;;;4.63;2.70;;;;;;;;;;5112109;28;20554;-68
2023/01/19 10:00:17;;;;;;;2.40;2.23;;;;;;;;;;5110310;28;20939;-67
2023/01/19 10:02:50;;;;;;;2.57;2.47;;;;;;;;;;5112310;28;20431;-67
2023/01/19 10:05:36;;;;;;;4.00;3.80;;;;;;;;;;5110239;28;20428;-69
2023/01/19 10:08:14;;;;;;;3.50;3.30;;;;;;;;;;5113360;27;20436;-67
2023/01/19 10:10:42;;;;;;;3.23;3.13;;;;;;;;;;5131955;27;20880;-67
2023/01/19 10:13:08;;;;;;;2.77;2.67;;;;;;;;;;5112542;27;22116;-67
2023/01/19 10:15:43;;;;;;;3.63;3.17;;;;;;;;;;5126959;27;20442;-67
2023/01/19 10:18:12;;;;;;;19.57;3.07;;;;;;;;;;5129611;27;20426;-69
2023/01/19 10:20:44;;;;;;;2.70;2.53;;;;;;;;;;5112026;27;20474;-67
2023/01/19 10:23:23;;;;;;;2.57;2.47;;;;;;;;;;5128860;27;20521;-70
2023/01/19 10:25:49;;;;;;;3.87;3.10;;;;;;;;;;5109250;27;20422;-67
2023/01/19 10:28:16;;;;;;;3.70;3.40;;;;;;;;;;5128375;27;20439;-67
2023/01/19 10:30:44;;;;;;;3.13;2.60;;;;;;;;;;5129557;27;20589;-68
2023/01/19 10:33:14;;;;;;;4.57;3.40;;;;;;;;;;5129834;27;20434;-67
2023/01/19 10:35:40;;;;;;;4.07;3.80;;;;;;;;;;5129826;27;20488;-68
2023/01/19 10:38:06;;;;;;;4.70;4.30;;;;;;;;;;5128017;27;20426;-68
2023/01/19 10:40:39;;;;;;;8.20;7.37;;;;;;;;;;5129673;27;20832;-66
2023/01/19 10:43:23;;;;;;;26.20;18.95;;;;;;;;;;5127802;27;20425;-68
2023/01/19 10:45:50;;;;;;;5.33;4.97;;;;;;;;;;5130149;27;20276;-66
2023/01/19 10:48:16;;;;;;;4.17;3.97;;;;;;;;;;5128627;27;20442;-66
2023/01/19 10:50:42;;;;;;;38.20;23.60;;;;;;;;;;5130845;27;20865;-66
2023/01/19 10:53:18;;;;;;;71.57;40.60;;;;;;;;;;5130273;27;20427;-67
2023/01/19 10:55:44;;;;;;;85.03;44.40;;;;;;;;;;5131597;27;20415;-70
2023/01/19 10:58:30;;;;;;;58.90;30.70;;;;;;;;;;5130568;27;20441;-67
2023/01/19 11:01:12;;;;;;;50.20;23.57;;;;;;;;;;5130639;27;20789;-67
2023/01/19 11:03:38;;;;;;;12.60;9.33;;;;;;;;;;5112836;27;20426;-67
2023/01/19 11:06:16;;;;;;;15.70;11.97;;;;;;;;;;5131263;27;20508;-68
2023/01/19 11:08:42;;;;;;;14.70;8.00;;;;;;;;;;5129539;27;20477;-66
2023/01/19 11:11:11;;;;;;;25.10;8.03;;;;;;;;;;5131155;27;20445;-68
2023/01/19 11:13:37;;;;;;;15.27;7.67;;;;;;;;;;5129605;27;20419;-67
2023/01/19 11:16:26;;;;;;;9.73;8.00;;;;;;;;;;5113012;27;20431;-66
2023/01/19 11:18:53;;;;;;;9.10;6.00;;;;;;;;;;5119423;27;20539;-68
2023/01/19 11:21:24;;;;;;;6.23;4.97;;;;;;;;;;5130503;27;20771;-66
2023/01/19 11:23:52;;;;;;;17.83;6.30;;;;;;;;;;5112699;27;20422;-66
2023/01/19 11:26:30;;;;;;;6.43;4.50;;;;;;;;;;5130836;27;20786;-67
2023/01/19 11:28:57;;;;;;;3.80;3.47;;;;;;;;;;5110352;27;20470;-66
2023/01/19 11:31:30;;;;;;;7.43;6.30;;;;;;;;;;5130580;27;20932;-67
2023/01/19 11:34:05;;;;;;;12.60;4.57;;;;;;;;;;5130776;27;20793;-67
2023/01/19 11:36:33;;;;;;;4.73;4.33;;;;;;;;;;5130575;27;20411;-66
2023/01/19 11:39:02;;;;;;;22.73;6.27;;;;;;;;;;5130196;27;20419;-67
2023/01/19 11:41:30;;;;;;;14.03;7.20;;;;;;;;;;5130868;27;20490;-68
2023/01/19 11:44:14;;;;;;;5.80;5.37;;;;;;;;;;5110757;27;21063;-67
2023/01/19 11:46:42;;;;;;;7.13;4.60;;;;;;;;;;5129633;27;20441;-66
2023/01/19 11:49:15;;;;;;;6.60;6.00;;;;;;;;;;5128436;27;20970;-68
2023/01/19 11:51:48;;;;;;;6.57;6.03;;;;;;;;;;5130244;27;20423;-67
2023/01/19 11:54:18;;;;;;;18.00;9.23;;;;;;;;;;5130718;27;20860;-68
2023/01/19 11:56:47;;;;;;;14.73;4.80;;;;;;;;;;5130180;27;20435;-67
2023/01/19 11:59:13;;;;;;;6.47;5.97;;;;;;;;;;5129536;27;20479;-67
2023/01/19 12:01:46;;;;;;;12.10;4.00;;;;;;;;;;5130280;27;20426;-67
2023/01/19 12:04:14;;;;;;;11.27;7.07;;;;;;;;;;5130714;27;20423;-66
2023/01/19 12:06:43;;;;;;;30.13;13.90;;;;;;;;;;5130477;27;20460;-67
2023/01/19 12:09:12;;;;;;;15.43;8.63;;;;;;;;;;5128363;27;20577;-67
2023/01/19 12:12:11;;;;;;;16.00;6.60;;;;;;;;;;5129622;27;21547;-67
2023/01/19 12:14:39;;;;;;;13.00;3.97;;;;;;;;;;5071454;28;20449;-67
2023/01/19 12:17:07;;;;;;;8.33;3.87;;;;;;;;;;5129992;28;20419;-66
2023/01/19 12:19:42;;;;;;;16.37;8.10;;;;;;;;;;5129245;28;20914;-69
2023/01/19 12:22:13;;;;;;;21.60;9.70;;;;;;;;;;5128374;28;20544;-70
2023/01/19 12:24:51;;;;;;;18.57;6.17;;;;;;;;;;5129658;28;20422;-66
2023/01/19 12:27:24;;;;;;;6.63;5.00;;;;;;;;;;5129490;28;20407;-66
2023/01/19 12:29:53;;;;;;;38.07;5.17;;;;;;;;;;5129675;28;20744;-68
2023/01/19 12:32:19;;;;;;;5.23;4.73;;;;;;;;;;5111669;28;20551;-67
2023/01/19 12:34:50;;;;;;;9.77;5.50;;;;;;;;;;5130013;28;20505;-67
2023/01/19 12:37:35;;;;;;;42.20;17.47;;;;;;;;;;5129190;28;20983;-66
2023/01/19 12:40:20;;;;;;;46.80;16.77;;;;;;;;;;5128918;28;20453;-66
2023/01/19 12:42:47;;;;;;;94.17;32.43;;;;;;;;;;5111019;28;20504;-69
2023/01/19 12:45:14;;;;;;;48.20;16.93;;;;;;;;;;5128912;28;20986;-67
2023/01/19 12:47:49;;;;;;;17.97;9.83;;;;;;;;;;5129036;27;21165;-68
2023/01/19 12:50:19;;;;;;;33.97;19.03;;;;;;;;;;5128625;28;20478;-67
2023/01/19 12:52:56;;;;;;;25.60;12.33;;;;;;;;;;5130107;27;20406;-69
2023/01/19 12:55:25;;;;;;;12.60;5.80;;;;;;;;;;5129658;28;20431;-68
2023/01/19 12:57:55;;;;;;;19.07;10.07;;;;;;;;;;5128234;28;20497;-66
2023/01/19 13:00:23;;;;;;;17.13;9.70;;;;;;;;;;5127333;28;20922;-66
2023/01/19 13:02:50;;;;;;;19.83;9.60;;;;;;;;;;5129435;28;20435;-66
2023/01/19 13:05:17;;;;;;;7.50;6.03;;;;;;;;;;5128347;28;20423;-66
2023/01/19 13:08:04;;;;;;;16.67;3.93;;;;;;;;;;5129613;28;20430;-68
2023/01/19 13:10:49;;;;;;;4.30;3.30;;;;;;;;;;5129092;28;20478;-69
2023/01/19 13:13:20;;;;;;;4.43;3.53;;;;;;;;;;5112493;27;20447;-65
2023/01/19 13:15:47;;;;;;;4.53;4.23;;;;;;;;;;5133464;27;20423;-70
2023/01/19 13:18:33;;;;;;;8.83;4.23;;;;;;;;;;5132402;27;20458;-68
2023/01/19 13:21:01;;;;;;;16.73;4.33;;;;;;;;;;5133426;27;20437;-66
2023/01/19 13:23:45;;;;;;;5.57;5.17;;;;;;;;;;5132049;27;20459;-66
2023/01/19 13:26:13;;;;;;;6.33;5.67;;;;;;;;;;5133350;27;20418;-65
2023/01/19 13:28:47;;;;;;;6.07;3.67;;;;;;;;;;5132603;27;20427;-66
2023/01/19 13:31:13;;;;;;;3.63;3.23;;;;;;;;;;5132157;27;20947;-65
2023/01/19 13:33:48;;;;;;;3.40;3.10;;;;;;;;;;5132533;27;20429;-65
2023/01/19 13:36:27;;;;;;;13.03;2.90;;;;;;;;;;5114897;27;20510;-67
2023/01/19 13:38:54;;;;;;;4.53;3.17;;;;;;;;;;5112904;27;20990;-67
2023/01/19 13:41:23;;;;;;;3.30;3.10;;;;;;;;;;5131333;27;20418;-66
2023/01/19 13:43:54;;;;;;;5.73;2.97;;;;;;;;;;5110121;27;20711;-66
2023/01/19 13:46:20;;;;;;;3.47;3.17;;;;;;;;;;5131104;27;20429;-66
2023/01/19 13:49:19;;;;;;;10.77;3.43;;;;;;;;;;5129559;27;20433;-65
2023/01/19 13:51:45;;;;;;;6.23;3.43;;;;;;;;;;5064000;27;20468;-66
2023/01/19 13:54:17;;;;;;;3.87;3.60;;;;;;;;;;5130656;27;20467;-66
2023/01/19 13:56:47;;;;;;;3.60;2.97;;;;;;;;;;5129663;27;20801;-65
2023/01/19 13:59:13;;;;;;;2.93;2.73;;;;;;;;;;5112027;27;20862;-66
2023/01/19 14:01:40;;;;;;;6.90;3.70;;;;;;;;;;5130971;27;20505;-66
2023/01/19 14:04:06;;;;;;;10.57;3.70;;;;;;;;;;5132137;27;20771;-65
2023/01/19 14:06:40;;;;;;;5.50;4.30;;;;;;;;;;5133161;27;20476;-66
2023/01/19 14:09:24;;;;;;;3.07;2.97;;;;;;;;;;5130181;27;20974;-66
2023/01/19 14:12:06;;;;;;;10.77;5.67;;;;;;;;;;5113791;27;20559;-66
2023/01/19 14:14:32;;;;;;;9.70;3.50;;;;;;;;;;5132753;27;20439;-65
2023/01/19 14:16:59;;;;;;;22.30;4.50;;;;;;;;;;5132153;27;20867;-63
2023/01/19 14:19:25;;;;;;;5.20;3.67;;;;;;;;;;5130098;27;20475;-68
2023/01/19 14:21:58;;;;;;;17.70;7.60;;;;;;;;;;5130831;27;20864;-66
2023/01/19 14:24:28;;;;;;;3.17;2.93;;;;;;;;;;5130547;27;20430;-69
2023/01/19 14:26:55;;;;;;;3.70;2.67;;;;;;;;;;5131321;27;20413;-65
2023/01/19 14:29:21;;;;;;;3.23;3.07;;;;;;;;;;5131686;27;20459;-70
2023/01/19 14:31:48;;;;;;;3.90;3.60;;;;;;;;;;5130211;27;21858;-66
2023/01/19 14:34:34;;;;;;;13.90;4.90;;;;;;;;;;5112364;27;20476;-66
2023/01/19 14:37:04;;;;;;;7.43;3.83;;;;;;;;;;5114238;27;20430;-66
2023/01/19 14:39:31;;;;;;;10.23;3.07;;;;;;;;;;5130995;27;20450;-67
2023/01/19 14:41:59;;;;;;;3.20;3.00;;;;;;;;;;5130369;27;20438;-68
2023/01/19 14:44:25;;;;;;;4.93;3.20;;;;;;;;;;5131695;27;20501;-67
2023/01/19 14:46:51;;;;;;;15.93;2.97;;;;;;;;;;5131930;27;20549;-67
2023/01/19 14:49:23;;;;;;;10.40;3.43;;;;;;;;;;5131325;27;20474;-66
2023/01/19 14:51:50;;;;;;;6.60;2.77;;;;;;;;;;5132022;27;20455;-67
2023/01/19 14:54:17;;;;;;;3.60;3.40;;;;;;;;;;5131597;27;20867;-70